Terminal Aerodrome Forecast
Issued by NWS Blacksburg, VA

Current Version | Previous Version | Text Only | Print | Product List | Glossary Off
Versions: 1 2 3 4 5 6 7 8 9 10 11 12 13 14 15 16 17 18 19 20 21 22 23 24 25 26 27 28 29 30 31 32 33 34 35 36 37 38 39 40

000
FTUS41 KRNK 301002 AAB
TAFBLF
TAF AMD
KBLF 301002Z 3010/0106 26008KT P6SM SCT025 OVC070
     FM301100 25007KT P6SM BKN025
     FM301400 26012G20KT P6SM SCT030 BKN060
     FM301900 25010G18KT P6SM VCTS BKN045CB
     FM010100 25006KT P6SM BKN100=

USA.gov is the U.S. government's official web portal to all federal, state and local government web resources and services.